Time;durP1;ratioP1;P1;durP2;ratioP2;P2;SDS_P1;SDS_P2;PMS_P1;PMS_P2;Temp;Humidity;BMP_temperature;BMP_pressure;BME280_temperature;BME280_humidity;BME280_pressure;Samples;Min_cycle;Max_cycle;Signal;HPM_P1;HPM_P2
2023/01/30 00:00:28;;;;;;;0.60;0.60;;;;;;;;;;5011094;28;20810;-76
2023/01/30 00:02:55;;;;;;;0.70;0.70;;;;;;;;;;5029454;28;20864;-76
2023/01/30 00:05:22;;;;;;;0.70;0.60;;;;;;;;;;5012822;28;21075;-76
2023/01/30 00:07:54;;;;;;;0.70;0.70;;;;;;;;;;5027730;28;20448;-76
2023/01/30 00:10:21;;;;;;;1.63;1.53;;;;;;;;;;5027565;28;20999;-76
2023/01/30 00:12:53;;;;;;;0.60;0.60;;;;;;;;;;5028646;28;20486;-76
2023/01/30 00:15:19;;;;;;;0.90;0.90;;;;;;;;;;5030105;28;20848;-76
2023/01/30 00:17:46;;;;;;;0.60;0.60;;;;;;;;;;5027306;28;20467;-77
2023/01/30 00:20:13;;;;;;;0.70;0.60;;;;;;;;;;5029436;28;20441;-76
2023/01/30 00:22:41;;;;;;;1.43;1.33;;;;;;;;;;5029075;28;21011;-75
2023/01/30 00:25:25;;;;;;;0.70;0.60;;;;;;;;;;5029052;28;20452;-75
2023/01/30 00:27:53;;;;;;;0.60;0.60;;;;;;;;;;5029462;28;20471;-76
2023/01/30 00:30:21;;;;;;;0.60;0.60;;;;;;;;;;5030844;28;20492;-77
2023/01/30 00:32:52;;;;;;;0.97;0.97;;;;;;;;;;5028554;28;20464;-75
2023/01/30 00:35:19;;;;;;;0.70;0.70;;;;;;;;;;5028852;28;20499;-76
2023/01/30 00:37:45;;;;;;;0.70;0.60;;;;;;;;;;5011129;28;20861;-76
2023/01/30 00:40:13;;;;;;;1.13;1.13;;;;;;;;;;5026431;28;20457;-76
2023/01/30 00:48:13;;;;;;;0.70;0.60;;;;;;;;;;5029300;28;20479;-75
2023/01/30 00:50:42;;;;;;;0.70;0.60;;;;;;;;;;5043335;28;21097;-76
2023/01/30 00:53:11;;;;;;;0.60;0.60;;;;;;;;;;5026000;28;21006;-76
2023/01/30 00:55:39;;;;;;;0.70;0.60;;;;;;;;;;5011689;28;20457;-75
2023/01/30 00:58:06;;;;;;;0.70;0.70;;;;;;;;;;5027663;28;20480;-76
2023/01/30 01:00:34;;;;;;;0.60;0.60;;;;;;;;;;5029056;28;20936;-76
2023/01/30 01:03:01;;;;;;;0.70;0.70;;;;;;;;;;5028398;28;20453;-76
2023/01/30 01:05:29;;;;;;;0.60;0.60;;;;;;;;;;5029652;28;20507;-76
2023/01/30 01:07:56;;;;;;;0.60;0.60;;;;;;;;;;5027386;28;20543;-75
2023/01/30 01:10:23;;;;;;;0.60;0.60;;;;;;;;;;5025621;28;20468;-76
2023/01/30 01:12:54;;;;;;;0.60;0.60;;;;;;;;;;5027914;28;20452;-75
2023/01/30 01:15:21;;;;;;;0.60;0.60;;;;;;;;;;5010937;28;20481;-76
2023/01/30 01:17:49;;;;;;;0.90;0.90;;;;;;;;;;5032464;28;21032;-76
2023/01/30 01:20:17;;;;;;;0.70;0.70;;;;;;;;;;5036235;28;20431;-76
2023/01/30 01:22:44;;;;;;;0.70;0.60;;;;;;;;;;5030472;28;20520;-76
2023/01/30 01:25:11;;;;;;;0.87;0.87;;;;;;;;;;5031936;28;20448;-75
2023/01/30 01:27:38;;;;;;;0.60;0.60;;;;;;;;;;5032217;28;20471;-76
2023/01/30 01:30:05;;;;;;;0.70;0.60;;;;;;;;;;5030118;28;20476;-76
2023/01/30 01:32:32;;;;;;;0.70;0.60;;;;;;;;;;5031838;28;20449;-77
2023/01/30 01:35:01;;;;;;;0.60;0.60;;;;;;;;;;5030184;28;20502;-77
2023/01/30 01:37:28;;;;;;;0.70;0.70;;;;;;;;;;5031382;28;20462;-76
2023/01/30 01:42:42;;;;;;;0.60;0.60;;;;;;;;;;5047454;28;21065;-78
2023/01/30 01:45:13;;;;;;;0.60;0.60;;;;;;;;;;5039518;28;20479;-75
2023/01/30 01:47:44;;;;;;;0.70;0.60;;;;;;;;;;5034407;28;20539;-79
2023/01/30 01:50:14;;;;;;;1.30;1.20;;;;;;;;;;5021965;28;20534;-78
2023/01/30 01:52:42;;;;;;;1.57;1.03;;;;;;;;;;5047670;28;20519;-78
2023/01/30 01:55:10;;;;;;;0.80;0.80;;;;;;;;;;5014577;28;20467;-79
2023/01/30 01:57:39;;;;;;;0.90;0.90;;;;;;;;;;5020076;28;20511;-78
2023/01/30 02:00:10;;;;;;;0.83;0.83;;;;;;;;;;5014633;28;20448;-76
2023/01/30 02:02:41;;;;;;;2.40;2.20;;;;;;;;;;5043278;28;20445;-79
2023/01/30 02:05:11;;;;;;;0.70;0.70;;;;;;;;;;5014723;28;20441;-77
2023/01/30 02:07:44;;;;;;;0.60;0.60;;;;;;;;;;5036905;28;21034;-77
2023/01/30 02:10:14;;;;;;;0.60;0.60;;;;;;;;;;5045253;28;20465;-76
2023/01/30 02:12:41;;;;;;;0.70;0.70;;;;;;;;;;5031101;28;20485;-77
2023/01/30 02:15:13;;;;;;;0.70;0.70;;;;;;;;;;5032525;28;20440;-76
2023/01/30 02:17:46;;;;;;;0.60;0.60;;;;;;;;;;5044321;28;20451;-78
2023/01/30 02:20:25;;;;;;;0.63;0.63;;;;;;;;;;5029105;28;20534;-78
2023/01/30 02:23:10;;;;;;;1.47;1.37;;;;;;;;;;5030020;28;20591;-77
2023/01/30 02:25:57;;;;;;;0.60;0.60;;;;;;;;;;5019274;28;20469;-76
2023/01/30 02:28:35;;;;;;;0.70;0.70;;;;;;;;;;5030552;28;20965;-76
2023/01/30 02:31:31;;;;;;;1.13;1.13;;;;;;;;;;5044329;28;20983;-80
2023/01/30 02:34:10;;;;;;;0.90;0.90;;;;;;;;;;5022568;28;20457;-75
2023/01/30 02:36:48;;;;;;;2.80;1.30;;;;;;;;;;5022636;28;20456;-80
2023/01/30 02:39:25;;;;;;;0.70;0.70;;;;;;;;;;5046149;28;20479;-78
2023/01/30 02:42:00;;;;;;;0.60;0.60;;;;;;;;;;5017091;28;20812;-76
2023/01/30 02:44:33;;;;;;;0.70;0.60;;;;;;;;;;5007268;28;20449;-78
2023/01/30 02:47:12;;;;;;;0.67;0.63;;;;;;;;;;5030981;28;20449;-78
2023/01/30 02:49:48;;;;;;;0.70;0.70;;;;;;;;;;5021191;28;20863;-77
2023/01/30 02:52:19;;;;;;;1.23;1.17;;;;;;;;;;5045280;28;20453;-77
2023/01/30 02:54:48;;;;;;;0.70;0.60;;;;;;;;;;5013607;28;20456;-76
2023/01/30 02:57:18;;;;;;;0.70;0.60;;;;;;;;;;5029870;28;20542;-77
2023/01/30 02:59:54;;;;;;;0.60;0.60;;;;;;;;;;5013959;28;20452;-77
2023/01/30 03:02:30;;;;;;;0.60;0.60;;;;;;;;;;5024941;28;20429;-76
2023/01/30 03:05:12;;;;;;;0.70;0.70;;;;;;;;;;5028927;28;20449;-76
2023/01/30 03:07:44;;;;;;;0.60;0.60;;;;;;;;;;5006738;28;20455;-78
2023/01/30 03:10:22;;;;;;;1.20;0.90;;;;;;;;;;5029824;28;20533;-77
2023/01/30 03:13:02;;;;;;;2.77;1.17;;;;;;;;;;5022968;28;20529;-77
2023/01/30 03:15:33;;;;;;;0.70;0.70;;;;;;;;;;5023828;28;20999;-77
2023/01/30 03:18:04;;;;;;;0.60;0.60;;;;;;;;;;5022135;28;20473;-77
2023/01/30 03:20:39;;;;;;;0.60;0.60;;;;;;;;;;5030211;28;20452;-76
2023/01/30 03:23:08;;;;;;;0.60;0.60;;;;;;;;;;5046328;28;20467;-78
2023/01/30 03:25:41;;;;;;;0.60;0.60;;;;;;;;;;5030056;28;20457;-76
2023/01/30 03:28:13;;;;;;;0.60;0.60;;;;;;;;;;5043732;28;20544;-77
2023/01/30 03:30:43;;;;;;;1.00;1.00;;;;;;;;;;5018324;28;20819;-77
2023/01/30 03:33:17;;;;;;;0.80;0.80;;;;;;;;;;5027421;28;20485;-77
2023/01/30 03:35:50;;;;;;;0.90;0.90;;;;;;;;;;5038119;28;20499;-77
2023/01/30 03:38:29;;;;;;;1.30;1.20;;;;;;;;;;5026425;28;20534;-78
2023/01/30 03:40:58;;;;;;;0.60;0.60;;;;;;;;;;5017986;28;20810;-76
2023/01/30 03:43:29;;;;;;;0.70;0.60;;;;;;;;;;5028046;28;20468;-75
2023/01/30 03:46:02;;;;;;;0.60;0.60;;;;;;;;;;5046085;28;20456;-78
2023/01/30 03:48:37;;;;;;;0.60;0.60;;;;;;;;;;5029075;28;20501;-78
2023/01/30 03:51:10;;;;;;;0.70;0.70;;;;;;;;;;5028866;28;20597;-78
2023/01/30 03:53:42;;;;;;;0.70;0.70;;;;;;;;;;5020534;28;20448;-79
2023/01/30 03:56:12;;;;;;;1.30;1.20;;;;;;;;;;5004604;28;20579;-79
2023/01/30 03:58:43;;;;;;;0.60;0.60;;;;;;;;;;5024364;28;21027;-79
2023/01/30 04:01:18;;;;;;;1.10;1.00;;;;;;;;;;5021305;28;20449;-79
2023/01/30 04:03:47;;;;;;;0.60;0.60;;;;;;;;;;5043627;28;20457;-78
2023/01/30 04:06:14;;;;;;;0.70;0.63;;;;;;;;;;5012695;28;20444;-76
2023/01/30 04:08:43;;;;;;;0.70;0.60;;;;;;;;;;5027699;28;20449;-77
2023/01/30 04:11:22;;;;;;;0.70;0.70;;;;;;;;;;5027890;28;20569;-77
2023/01/30 04:13:49;;;;;;;0.70;0.70;;;;;;;;;;5025080;28;20489;-76
2023/01/30 04:16:18;;;;;;;1.53;1.00;;;;;;;;;;5025924;28;20511;-76
2023/01/30 04:19:06;;;;;;;0.60;0.60;;;;;;;;;;5027064;28;20599;-78
2023/01/30 04:21:33;;;;;;;1.53;1.43;;;;;;;;;;5027514;28;20515;-75
2023/01/30 04:23:59;;;;;;;0.70;0.70;;;;;;;;;;5010579;28;20464;-76
2023/01/30 04:26:27;;;;;;;0.63;0.57;;;;;;;;;;5027085;28;20468;-78
2023/01/30 04:28:54;;;;;;;0.70;0.70;;;;;;;;;;5030180;28;20448;-77
2023/01/30 04:31:21;;;;;;;1.73;1.63;;;;;;;;;;5012098;28;20560;-76
2023/01/30 04:34:05;;;;;;;1.00;0.90;;;;;;;;;;5012664;28;20449;-77
2023/01/30 04:36:33;;;;;;;0.60;0.60;;;;;;;;;;5028493;28;20447;-79
2023/01/30 04:39:00;;;;;;;0.83;0.83;;;;;;;;;;5029252;28;20960;-77
2023/01/30 04:41:30;;;;;;;0.63;0.60;;;;;;;;;;5043489;28;20465;-77
2023/01/30 04:43:59;;;;;;;0.90;0.90;;;;;;;;;;5043708;28;20456;-75
2023/01/30 04:46:41;;;;;;;0.70;0.70;;;;;;;;;;5028865;28;20964;-77
2023/01/30 04:49:12;;;;;;;0.70;0.67;;;;;;;;;;5022681;28;20993;-75
2023/01/30 04:51:38;;;;;;;0.60;0.60;;;;;;;;;;5034185;28;20811;-76
2023/01/30 04:54:05;;;;;;;0.70;0.70;;;;;;;;;;5017238;28;20447;-76
2023/01/30 04:56:32;;;;;;;0.60;0.60;;;;;;;;;;5017555;28;20575;-76
2023/01/30 04:58:59;;;;;;;0.70;0.70;;;;;;;;;;5030938;28;20457;-76
2023/01/30 05:01:32;;;;;;;1.23;1.13;;;;;;;;;;5030562;28;20484;-77
2023/01/30 05:04:00;;;;;;;1.00;0.70;;;;;;;;;;5047237;28;20476;-75
2023/01/30 05:06:29;;;;;;;0.60;0.60;;;;;;;;;;5033535;28;20456;-76
2023/01/30 05:08:56;;;;;;;1.17;1.10;;;;;;;;;;5032905;28;20437;-76
2023/01/30 05:11:24;;;;;;;0.60;0.60;;;;;;;;;;5047637;28;20491;-75
2023/01/30 05:13:51;;;;;;;1.10;1.00;;;;;;;;;;5003217;28;20453;-77
2023/01/30 05:16:19;;;;;;;1.27;1.23;;;;;;;;;;5033615;28;20429;-77
2023/01/30 05:18:46;;;;;;;0.60;0.60;;;;;;;;;;5007418;28;20547;-77
2023/01/30 05:21:14;;;;;;;1.37;1.27;;;;;;;;;;5029428;28;20975;-78
2023/01/30 05:23:43;;;;;;;0.60;0.60;;;;;;;;;;5032193;28;20490;-77
2023/01/30 05:26:11;;;;;;;0.70;0.70;;;;;;;;;;5031598;28;20476;-77
2023/01/30 05:28:38;;;;;;;0.60;0.60;;;;;;;;;;5030881;28;20449;-76
2023/01/30 05:31:06;;;;;;;0.80;0.80;;;;;;;;;;5031759;28;20468;-75
2023/01/30 05:33:33;;;;;;;1.00;1.00;;;;;;;;;;5032050;28;20452;-75
2023/01/30 05:36:00;;;;;;;1.20;1.10;;;;;;;;;;5032455;28;20452;-75
2023/01/30 05:38:27;;;;;;;0.60;0.60;;;;;;;;;;5030154;28;20444;-76
2023/01/30 05:40:59;;;;;;;0.60;0.60;;;;;;;;;;5027796;28;20507;-76
2023/01/30 05:43:26;;;;;;;0.60;0.60;;;;;;;;;;5025895;28;20832;-76
2023/01/30 05:45:53;;;;;;;0.70;0.60;;;;;;;;;;5029106;28;20548;-76
2023/01/30 05:48:21;;;;;;;1.33;1.23;;;;;;;;;;5014465;28;20455;-77
2023/01/30 05:50:49;;;;;;;1.47;1.37;;;;;;;;;;5031307;28;20487;-75
2023/01/30 05:53:19;;;;;;;0.70;0.70;;;;;;;;;;5028224;28;20475;-76
2023/01/30 05:55:53;;;;;;;0.60;0.60;;;;;;;;;;5032448;28;20437;-77
2023/01/30 05:58:21;;;;;;;0.60;0.50;;;;;;;;;;5023739;28;20460;-76
2023/01/30 06:00:48;;;;;;;0.60;0.60;;;;;;;;;;5029308;28;20488;-76
2023/01/30 06:03:15;;;;;;;0.70;0.70;;;;;;;;;;5030548;28;20455;-75
2023/01/30 06:05:42;;;;;;;4.43;1.10;;;;;;;;;;5031563;28;20444;-75
2023/01/30 06:08:10;;;;;;;1.23;1.13;;;;;;;;;;5030660;28;20450;-76
2023/01/30 06:10:37;;;;;;;0.60;0.60;;;;;;;;;;5030378;28;20472;-76
2023/01/30 06:13:04;;;;;;;0.60;0.50;;;;;;;;;;5032407;28;20817;-79
2023/01/30 06:15:32;;;;;;;0.60;0.60;;;;;;;;;;5029013;28;20457;-73
2023/01/30 06:17:59;;;;;;;0.70;0.70;;;;;;;;;;5031000;28;20476;-76
2023/01/30 06:20:26;;;;;;;0.60;0.60;;;;;;;;;;5029985;28;20503;-76
2023/01/30 06:22:53;;;;;;;0.60;0.60;;;;;;;;;;5014662;28;20467;-77
2023/01/30 06:25:20;;;;;;;0.83;0.83;;;;;;;;;;5030425;28;20452;-77
2023/01/30 06:27:47;;;;;;;0.60;0.60;;;;;;;;;;5027838;28;20464;-74
2023/01/30 06:30:14;;;;;;;2.93;2.73;;;;;;;;;;5030363;28;20476;-75
2023/01/30 06:32:42;;;;;;;0.60;0.60;;;;;;;;;;5033112;28;20445;-75
2023/01/30 06:35:09;;;;;;;0.60;0.50;;;;;;;;;;5046578;28;20449;-76
2023/01/30 06:37:36;;;;;;;0.60;0.60;;;;;;;;;;5031081;28;20506;-78
2023/01/30 06:40:24;;;;;;;0.70;0.70;;;;;;;;;;5031073;28;20928;-76
2023/01/30 06:42:50;;;;;;;0.70;0.70;;;;;;;;;;5029221;28;20492;-76
2023/01/30 06:45:17;;;;;;;0.60;0.60;;;;;;;;;;5031939;28;20499;-78
2023/01/30 06:47:50;;;;;;;0.70;0.70;;;;;;;;;;5029197;28;20437;-77
2023/01/30 06:50:37;;;;;;;0.80;0.80;;;;;;;;;;5045917;28;20463;-76
2023/01/30 06:53:04;;;;;;;0.70;0.70;;;;;;;;;;5032322;28;20433;-75
2023/01/30 06:55:34;;;;;;;0.60;0.50;;;;;;;;;;5040241;28;20464;-75
2023/01/30 06:58:02;;;;;;;0.60;0.60;;;;;;;;;;5028820;28;20503;-78
2023/01/30 07:00:30;;;;;;;0.60;0.50;;;;;;;;;;5033213;28;20472;-76
2023/01/30 07:02:58;;;;;;;1.07;0.97;;;;;;;;;;5030490;28;20477;-77
2023/01/30 07:05:29;;;;;;;0.60;0.60;;;;;;;;;;5030147;28;20496;-79
2023/01/30 07:07:56;;;;;;;0.60;0.50;;;;;;;;;;5029111;28;20984;-78
2023/01/30 07:10:25;;;;;;;1.20;1.10;;;;;;;;;;5014646;28;20441;-78
2023/01/30 07:12:52;;;;;;;0.60;0.60;;;;;;;;;;5031697;28;20487;-78
2023/01/30 07:15:20;;;;;;;0.70;0.70;;;;;;;;;;5051515;28;20471;-79
2023/01/30 07:17:48;;;;;;;0.60;0.60;;;;;;;;;;5035073;28;20491;-78
2023/01/30 07:20:16;;;;;;;0.60;0.60;;;;;;;;;;5033138;28;20528;-81
2023/01/30 07:22:48;;;;;;;1.20;1.10;;;;;;;;;;5026089;28;20467;-77
2023/01/30 07:25:15;;;;;;;0.60;0.60;;;;;;;;;;5032375;28;20536;-79
2023/01/30 07:27:42;;;;;;;0.60;0.50;;;;;;;;;;5031301;28;20503;-78
2023/01/30 07:30:10;;;;;;;0.60;0.60;;;;;;;;;;5030089;28;20544;-79
2023/01/30 07:32:37;;;;;;;0.70;0.70;;;;;;;;;;5032461;28;20468;-81
2023/01/30 07:35:04;;;;;;;0.60;0.60;;;;;;;;;;5029062;28;20504;-81
2023/01/30 07:37:33;;;;;;;0.60;0.60;;;;;;;;;;5033261;28;20460;-81
2023/01/30 07:39:59;;;;;;;0.60;0.50;;;;;;;;;;5045044;28;20491;-81
2023/01/30 07:42:26;;;;;;;0.60;0.60;;;;;;;;;;5031176;28;20546;-80
2023/01/30 07:44:53;;;;;;;1.13;1.03;;;;;;;;;;5028525;28;20779;-79
2023/01/30 07:47:20;;;;;;;1.00;1.00;;;;;;;;;;5029583;28;20958;-79
2023/01/30 07:49:47;;;;;;;0.70;0.70;;;;;;;;;;5030213;28;20843;-78
2023/01/30 07:52:13;;;;;;;0.60;0.60;;;;;;;;;;5037216;28;21087;-81
2023/01/30 07:54:42;;;;;;;0.60;0.50;;;;;;;;;;5030564;28;20528;-81
2023/01/30 07:57:09;;;;;;;0.60;0.60;;;;;;;;;;5030835;28;20464;-80
2023/01/30 07:59:36;;;;;;;0.60;0.50;;;;;;;;;;5028596;28;20863;-78
2023/01/30 08:02:24;;;;;;;0.60;0.60;;;;;;;;;;5030032;28;20428;-79
2023/01/30 08:04:51;;;;;;;0.60;0.50;;;;;;;;;;5030594;28;20534;-79
2023/01/30 08:07:19;;;;;;;0.60;0.60;;;;;;;;;;5029986;28;20425;-78
2023/01/30 08:09:47;;;;;;;0.60;0.50;;;;;;;;;;5038928;28;20500;-78
2023/01/30 08:12:14;;;;;;;0.60;0.53;;;;;;;;;;5042320;28;20481;-78
2023/01/30 08:14:41;;;;;;;0.60;0.50;;;;;;;;;;5030775;28;20486;-80
2023/01/30 08:17:08;;;;;;;0.60;0.50;;;;;;;;;;5028031;28;20421;-77
2023/01/30 08:19:35;;;;;;;0.60;0.50;;;;;;;;;;5029817;28;20541;-80
2023/01/30 08:22:01;;;;;;;0.60;0.50;;;;;;;;;;5025421;28;20441;-79
2023/01/30 08:24:29;;;;;;;0.83;0.83;;;;;;;;;;5030075;28;20444;-79
2023/01/30 08:26:57;;;;;;;0.60;0.60;;;;;;;;;;5027350;28;20565;-80
2023/01/30 08:29:24;;;;;;;0.80;0.80;;;;;;;;;;5030296;28;20438;-81
2023/01/30 08:31:55;;;;;;;0.60;0.60;;;;;;;;;;5025466;28;20549;-80
2023/01/30 08:34:21;;;;;;;0.60;0.60;;;;;;;;;;5029243;28;20930;-80
2023/01/30 08:36:50;;;;;;;0.60;0.60;;;;;;;;;;5028805;28;20441;-77
2023/01/30 08:39:16;;;;;;;0.60;0.60;;;;;;;;;;5030365;28;20428;-79
2023/01/30 08:41:43;;;;;;;1.87;1.77;;;;;;;;;;5027916;28;21003;-80
2023/01/30 08:44:11;;;;;;;0.73;0.73;;;;;;;;;;5027680;28;20806;-78
2023/01/30 08:46:39;;;;;;;1.47;1.37;;;;;;;;;;5029969;28;20457;-78
2023/01/30 08:49:05;;;;;;;1.10;0.90;;;;;;;;;;5030724;28;20539;-78
2023/01/30 08:51:33;;;;;;;1.43;1.03;;;;;;;;;;5028696;28;21237;-79
2023/01/30 08:54:01;;;;;;;0.70;0.70;;;;;;;;;;5038012;28;20452;-78
2023/01/30 08:56:28;;;;;;;2.53;2.40;;;;;;;;;;5029453;28;20571;-77
2023/01/30 08:58:55;;;;;;;3.90;1.13;;;;;;;;;;5029279;28;20456;-81
2023/01/30 09:01:23;;;;;;;0.60;0.60;;;;;;;;;;5029980;28;20456;-80
2023/01/30 09:03:50;;;;;;;0.70;0.60;;;;;;;;;;5027602;28;20797;-81
2023/01/30 09:06:17;;;;;;;1.67;1.00;;;;;;;;;;5029577;28;20969;-79
2023/01/30 09:08:44;;;;;;;0.70;0.70;;;;;;;;;;5027946;28;20555;-81
2023/01/30 09:11:11;;;;;;;0.60;0.60;;;;;;;;;;5023249;28;20473;-81
2023/01/30 09:13:42;;;;;;;0.70;0.70;;;;;;;;;;5030008;28;20439;-77
2023/01/30 09:16:10;;;;;;;0.63;0.63;;;;;;;;;;5028521;28;20580;-80
2023/01/30 09:18:39;;;;;;;0.60;0.60;;;;;;;;;;5031095;28;20437;-81
2023/01/30 09:21:06;;;;;;;1.07;0.97;;;;;;;;;;5023099;28;20449;-80
2023/01/30 09:23:33;;;;;;;0.60;0.60;;;;;;;;;;5044715;28;20448;-80
2023/01/30 09:26:01;;;;;;;0.60;0.60;;;;;;;;;;5032019;28;20454;-81
2023/01/30 09:28:28;;;;;;;0.63;0.63;;;;;;;;;;5031456;28;20439;-80
2023/01/30 09:30:55;;;;;;;0.60;0.60;;;;;;;;;;5031963;28;20964;-80
2023/01/30 09:33:24;;;;;;;0.60;0.60;;;;;;;;;;5030078;28;20509;-78
2023/01/30 09:35:52;;;;;;;0.60;0.60;;;;;;;;;;5028040;28;20441;-81
2023/01/30 09:38:41;;;;;;;0.70;0.70;;;;;;;;;;5033640;28;20433;-82
2023/01/30 09:41:31;;;;;;;0.60;0.60;;;;;;;;;;5032920;28;20476;-78
2023/01/30 09:44:10;;;;;;;1.20;1.17;;;;;;;;;;5032238;28;20472;-80
2023/01/30 09:46:41;;;;;;;0.63;0.63;;;;;;;;;;5036383;28;20450;-79
2023/01/30 09:49:14;;;;;;;1.10;1.10;;;;;;;;;;5035707;28;20451;-81
2023/01/30 09:51:51;;;;;;;0.60;0.60;;;;;;;;;;5031414;28;20560;-81
2023/01/30 09:54:26;;;;;;;0.70;0.70;;;;;;;;;;5033867;28;20528;-77
2023/01/30 09:56:56;;;;;;;0.70;0.60;;;;;;;;;;5033195;28;20464;-80
2023/01/30 09:59:24;;;;;;;0.60;0.60;;;;;;;;;;5035259;28;21255;-80
2023/01/30 10:01:57;;;;;;;0.80;0.80;;;;;;;;;;5034983;28;20437;-80
2023/01/30 10:04:28;;;;;;;0.70;0.70;;;;;;;;;;5023422;28;20461;-79
2023/01/30 10:06:59;;;;;;;0.70;0.70;;;;;;;;;;5032898;28;20793;-80
2023/01/30 10:09:30;;;;;;;0.70;0.70;;;;;;;;;;5053928;28;20460;-79
2023/01/30 10:12:05;;;;;;;1.23;1.13;;;;;;;;;;5033562;28;20516;-81
2023/01/30 10:14:39;;;;;;;0.70;0.70;;;;;;;;;;5032276;28;20900;-80
2023/01/30 10:17:33;;;;;;;0.70;0.70;;;;;;;;;;5033735;28;20952;-81
2023/01/30 10:20:03;;;;;;;0.70;0.70;;;;;;;;;;5037782;28;20453;-79
2023/01/30 10:22:57;;;;;;;0.70;0.63;;;;;;;;;;5032107;28;20431;-78
2023/01/30 10:25:28;;;;;;;0.70;0.70;;;;;;;;;;5033272;28;20437;-79
2023/01/30 10:27:58;;;;;;;0.70;0.70;;;;;;;;;;5033163;28;20928;-81
2023/01/30 10:30:25;;;;;;;0.70;0.67;;;;;;;;;;5025656;28;20469;-80
2023/01/30 10:32:54;;;;;;;0.70;0.70;;;;;;;;;;5031632;28;20534;-77
2023/01/30 10:35:22;;;;;;;0.80;0.80;;;;;;;;;;5034346;28;20465;-78
2023/01/30 10:37:57;;;;;;;0.70;0.60;;;;;;;;;;5034468;28;20484;-79
2023/01/30 10:40:28;;;;;;;0.70;0.70;;;;;;;;;;5029695;28;20445;-80
2023/01/30 10:42:59;;;;;;;0.70;0.70;;;;;;;;;;5032340;28;20475;-81
2023/01/30 10:45:30;;;;;;;0.70;0.70;;;;;;;;;;5032902;28;20448;-81
2023/01/30 10:48:01;;;;;;;0.80;0.80;;;;;;;;;;5006541;28;20473;-80
2023/01/30 10:50:35;;;;;;;0.70;0.60;;;;;;;;;;5031175;28;20434;-80
2023/01/30 10:53:05;;;;;;;0.70;0.60;;;;;;;;;;5030795;28;20496;-80
2023/01/30 10:55:36;;;;;;;0.70;0.70;;;;;;;;;;5037752;28;20464;-78
2023/01/30 10:58:09;;;;;;;0.67;0.67;;;;;;;;;;5033642;28;20571;-80
2023/01/30 11:00:38;;;;;;;0.63;0.60;;;;;;;;;;5034423;28;20569;-80
2023/01/30 11:03:11;;;;;;;0.70;0.70;;;;;;;;;;5033027;28;20443;-79
2023/01/30 11:05:40;;;;;;;0.77;0.77;;;;;;;;;;5033274;28;20459;-80
2023/01/30 11:08:11;;;;;;;0.70;0.70;;;;;;;;;;5033008;28;20439;-78
2023/01/30 11:10:39;;;;;;;0.70;0.70;;;;;;;;;;5015315;28;20508;-77
2023/01/30 11:13:12;;;;;;;0.70;0.70;;;;;;;;;;5025092;28;20475;-79
2023/01/30 11:15:39;;;;;;;0.70;0.60;;;;;;;;;;5032652;28;20433;-81
2023/01/30 11:18:07;;;;;;;0.70;0.70;;;;;;;;;;5030869;28;21060;-78
2023/01/30 11:20:59;;;;;;;0.70;0.60;;;;;;;;;;5023044;28;20447;-79
2023/01/30 11:23:30;;;;;;;0.77;0.77;;;;;;;;;;5022815;28;20445;-79
2023/01/30 11:26:00;;;;;;;0.90;0.90;;;;;;;;;;5031162;28;20914;-80
2023/01/30 11:28:39;;;;;;;0.70;0.70;;;;;;;;;;5042443;28;20490;-78
2023/01/30 11:31:16;;;;;;;0.70;0.67;;;;;;;;;;5031875;28;20536;-78
2023/01/30 11:33:57;;;;;;;0.90;0.90;;;;;;;;;;5048394;28;20483;-79
2023/01/30 11:36:26;;;;;;;0.87;0.87;;;;;;;;;;5023246;28;20452;-78
2023/01/30 11:38:56;;;;;;;0.70;0.70;;;;;;;;;;5024563;28;20454;-78
2023/01/30 11:41:24;;;;;;;0.70;0.63;;;;;;;;;;5044610;28;21014;-78
2023/01/30 11:43:58;;;;;;;0.70;0.60;;;;;;;;;;5033632;28;20540;-79
2023/01/30 11:46:28;;;;;;;0.70;0.60;;;;;;;;;;5032576;28;20451;-80
2023/01/30 11:48:58;;;;;;;0.70;0.60;;;;;;;;;;5049018;28;20940;-79
2023/01/30 11:51:45;;;;;;;0.70;0.70;;;;;;;;;;5030185;28;20546;-79
2023/01/30 11:54:15;;;;;;;0.70;0.60;;;;;;;;;;5031802;28;20436;-80
2023/01/30 11:56:48;;;;;;;0.70;0.60;;;;;;;;;;5045724;28;20468;-79
2023/01/30 11:59:22;;;;;;;0.70;0.60;;;;;;;;;;5032645;28;20448;-77
2023/01/30 12:01:49;;;;;;;0.70;0.60;;;;;;;;;;5020348;28;20459;-81
2023/01/30 12:04:16;;;;;;;0.70;0.70;;;;;;;;;;5032902;28;20452;-79
2023/01/30 12:06:44;;;;;;;0.70;0.70;;;;;;;;;;5029720;28;20792;-79
2023/01/30 12:09:29;;;;;;;0.60;0.60;;;;;;;;;;5030875;28;20455;-78
2023/01/30 12:11:57;;;;;;;0.80;0.80;;;;;;;;;;5031461;28;20470;-78
2023/01/30 12:14:31;;;;;;;0.70;0.70;;;;;;;;;;5033766;28;20543;-80
2023/01/30 12:17:03;;;;;;;0.70;0.63;;;;;;;;;;5047388;28;20455;-79
2023/01/30 12:19:36;;;;;;;0.70;0.60;;;;;;;;;;5040080;28;20563;-80
2023/01/30 12:22:08;;;;;;;1.73;1.17;;;;;;;;;;5015123;28;20466;-81
2023/01/30 12:24:38;;;;;;;0.70;0.60;;;;;;;;;;5028836;28;20467;-75
2023/01/30 12:27:13;;;;;;;0.70;0.70;;;;;;;;;;5030034;28;20527;-80
2023/01/30 12:29:45;;;;;;;0.70;0.70;;;;;;;;;;5043004;28;21075;-82
2023/01/30 12:32:17;;;;;;;0.63;0.60;;;;;;;;;;5030128;28;20468;-81
2023/01/30 12:34:53;;;;;;;0.70;0.70;;;;;;;;;;5018736;28;20953;-80
2023/01/30 12:37:32;;;;;;;0.70;0.70;;;;;;;;;;5030545;28;20494;-78
2023/01/30 12:40:02;;;;;;;0.70;0.70;;;;;;;;;;5013751;28;20457;-81
2023/01/30 12:42:40;;;;;;;0.70;0.70;;;;;;;;;;5043459;28;20495;-81
2023/01/30 12:45:16;;;;;;;0.80;0.80;;;;;;;;;;5029221;28;20455;-81
2023/01/30 12:47:50;;;;;;;0.70;0.70;;;;;;;;;;5031890;28;20493;-80
2023/01/30 12:50:22;;;;;;;0.70;0.70;;;;;;;;;;5028656;28;20475;-78
2023/01/30 12:53:04;;;;;;;0.77;0.77;;;;;;;;;;5028342;28;20467;-79
2023/01/30 12:55:35;;;;;;;0.70;0.70;;;;;;;;;;5011779;28;20503;-81
2023/01/30 12:58:28;;;;;;;0.70;0.63;;;;;;;;;;5028834;28;20479;-77
2023/01/30 13:01:01;;;;;;;0.70;0.70;;;;;;;;;;5046431;28;20885;-80
2023/01/30 13:03:34;;;;;;;0.70;0.70;;;;;;;;;;5022365;28;20470;-79
2023/01/30 13:06:06;;;;;;;0.70;0.67;;;;;;;;;;5027432;28;20978;-81
2023/01/30 13:08:39;;;;;;;0.70;0.70;;;;;;;;;;5029807;28;20445;-79
2023/01/30 13:11:12;;;;;;;1.10;1.00;;;;;;;;;;5029096;28;20916;-78
2023/01/30 13:13:45;;;;;;;0.70;0.67;;;;;;;;;;5024120;28;20524;-80
2023/01/30 13:16:36;;;;;;;0.70;0.70;;;;;;;;;;5031656;28;20999;-79
2023/01/30 13:19:05;;;;;;;0.80;0.80;;;;;;;;;;5025308;28;20860;-81
2023/01/30 13:21:34;;;;;;;0.70;0.70;;;;;;;;;;5032044;28;20450;-79
2023/01/30 13:24:09;;;;;;;1.00;1.00;;;;;;;;;;5017606;28;20799;-80
2023/01/30 13:26:38;;;;;;;0.73;0.73;;;;;;;;;;5025979;28;20579;-80
2023/01/30 13:29:11;;;;;;;0.80;0.80;;;;;;;;;;5048253;28;20441;-80
2023/01/30 13:31:41;;;;;;;0.70;0.60;;;;;;;;;;5031494;28;20479;-79
2023/01/30 13:34:11;;;;;;;0.80;0.70;;;;;;;;;;5034966;28;20469;-77
2023/01/30 13:36:41;;;;;;;0.70;0.60;;;;;;;;;;5023639;28;20558;-80
2023/01/30 13:39:11;;;;;;;0.70;0.70;;;;;;;;;;5033248;28;20425;-78
2023/01/30 13:41:40;;;;;;;0.70;0.70;;;;;;;;;;5032297;28;20507;-75
2023/01/30 13:44:15;;;;;;;0.83;0.83;;;;;;;;;;5014904;28;20455;-76
2023/01/30 13:46:46;;;;;;;1.70;1.60;;;;;;;;;;5035027;28;20454;-77
2023/01/30 13:49:17;;;;;;;0.70;0.60;;;;;;;;;;5034699;28;20471;-80
2023/01/30 13:51:46;;;;;;;0.70;0.60;;;;;;;;;;5032512;28;20605;-76
2023/01/30 13:54:31;;;;;;;0.70;0.60;;;;;;;;;;5031627;28;20503;-77
2023/01/30 13:57:09;;;;;;;0.70;0.60;;;;;;;;;;5046762;28;20678;-77
2023/01/30 13:59:45;;;;;;;0.70;0.60;;;;;;;;;;5034541;28;20456;-77
2023/01/30 14:02:16;;;;;;;0.70;0.60;;;;;;;;;;5026620;28;20518;-80
2023/01/30 14:04:48;;;;;;;0.70;0.70;;;;;;;;;;5038715;28;20474;-76
2023/01/30 14:07:17;;;;;;;0.70;0.60;;;;;;;;;;5014268;28;20455;-78
2023/01/30 14:09:45;;;;;;;0.70;0.70;;;;;;;;;;5050174;28;20453;-77
2023/01/30 14:12:16;;;;;;;0.70;0.60;;;;;;;;;;5033601;28;20457;-78
2023/01/30 14:14:56;;;;;;;0.70;0.70;;;;;;;;;;5030580;28;20473;-79
2023/01/30 14:17:23;;;;;;;0.70;0.60;;;;;;;;;;5036005;28;20478;-78
2023/01/30 14:19:56;;;;;;;0.70;0.70;;;;;;;;;;5031715;28;20448;-77
2023/01/30 14:22:34;;;;;;;0.70;0.60;;;;;;;;;;5034102;28;20436;-80
2023/01/30 14:25:20;;;;;;;0.70;0.70;;;;;;;;;;5011066;28;20543;-80
2023/01/30 14:27:49;;;;;;;0.70;0.60;;;;;;;;;;5034590;28;20465;-77
2023/01/30 14:30:37;;;;;;;0.70;0.70;;;;;;;;;;5033321;28;21137;-78
2023/01/30 14:33:23;;;;;;;0.70;0.60;;;;;;;;;;5047701;28;20594;-78
2023/01/30 14:36:06;;;;;;;0.70;0.60;;;;;;;;;;5031622;28;20443;-79
2023/01/30 14:38:33;;;;;;;0.70;0.70;;;;;;;;;;5031757;28;21016;-82
2023/01/30 14:41:15;;;;;;;0.70;0.70;;;;;;;;;;5029702;28;20522;-81
2023/01/30 14:43:47;;;;;;;1.10;1.00;;;;;;;;;;5044040;28;20459;-81
2023/01/30 14:46:42;;;;;;;0.70;0.67;;;;;;;;;;5029378;28;20428;-80
2023/01/30 14:49:28;;;;;;;0.60;0.60;;;;;;;;;;5030966;28;20443;-80
2023/01/30 14:51:55;;;;;;;0.70;0.60;;;;;;;;;;5030616;28;20535;-78
2023/01/30 14:54:43;;;;;;;0.70;0.70;;;;;;;;;;5031093;28;20465;-78
2023/01/30 14:57:18;;;;;;;0.70;0.70;;;;;;;;;;5039651;28;20532;-78
2023/01/30 14:59:48;;;;;;;0.70;0.70;;;;;;;;;;5035224;28;20765;-76
2023/01/30 15:02:42;;;;;;;0.70;0.70;;;;;;;;;;5033320;28;20924;-78
2023/01/30 15:05:12;;;;;;;0.70;0.60;;;;;;;;;;5044335;28;20773;-77
2023/01/30 15:07:40;;;;;;;0.70;0.67;;;;;;;;;;5020350;28;20462;-77
2023/01/30 15:10:16;;;;;;;0.70;0.70;;;;;;;;;;5035813;28;20518;-77
2023/01/30 15:12:55;;;;;;;1.43;1.33;;;;;;;;;;5026995;28;20541;-76
2023/01/30 15:15:25;;;;;;;0.70;0.60;;;;;;;;;;5031284;28;20549;-78